Time;durP1;ratioP1;P1;durP2;ratioP2;P2;SDS_P1;SDS_P2;PMS_P1;PMS_P2;Temp;Humidity;BMP_temperature;BMP_pressure;BME280_temperature;BME280_humidity;BME280_pressure;Samples;Min_cycle;Max_cycle;Signal;HPM_P1;HPM_P2
2023/01/04 00:00:26;;;;;;;3.50;1.37;;;9.80;99.90;;;;;;4978280;28;20203;-85
2023/01/04 00:02:52;;;;;;;4.87;1.60;;;9.90;99.90;;;;;;4976945;28;20648;-84
2023/01/04 00:05:17;;;;;;;3.10;1.70;;;9.90;99.90;;;;;;4976418;28;20191;-85
2023/01/04 00:07:43;;;;;;;4.37;1.60;;;9.90;99.90;;;;;;4976592;28;20187;-84
2023/01/04 00:10:08;;;;;;;3.30;1.50;;;10.00;99.90;;;;;;4976718;28;20246;-85
2023/01/04 00:12:35;;;;;;;3.03;1.50;;;9.90;99.90;;;;;;4977225;28;20187;-84
2023/01/04 00:15:01;;;;;;;3.47;1.40;;;9.90;99.90;;;;;;4977192;28;20632;-85
2023/01/04 00:17:27;;;;;;;3.90;1.67;;;10.00;99.90;;;;;;4979037;28;20204;-83
2023/01/04 00:19:53;;;;;;;4.13;1.70;;;10.00;99.90;;;;;;4977485;28;20199;-84
2023/01/04 00:22:18;;;;;;;2.53;1.60;;;9.90;99.90;;;;;;4987746;28;20203;-83
2023/01/04 00:24:44;;;;;;;3.70;1.30;;;10.00;99.90;;;;;;4995233;28;20663;-84
2023/01/04 00:27:10;;;;;;;2.73;1.23;;;10.00;99.90;;;;;;4983365;28;20250;-86
2023/01/04 00:29:38;;;;;;;3.10;1.80;;;10.00;99.90;;;;;;4978278;28;20751;-85
2023/01/04 00:32:05;;;;;;;3.03;1.53;;;10.10;99.90;;;;;;4977390;28;20186;-85
2023/01/04 00:34:31;;;;;;;4.87;1.63;;;10.20;99.90;;;;;;4976130;28;20168;-85
2023/01/04 00:36:56;;;;;;;3.93;1.40;;;10.30;99.90;;;;;;4976824;28;20279;-84
2023/01/04 00:39:22;;;;;;;2.97;1.10;;;10.30;99.90;;;;;;4977375;28;20178;-84
2023/01/04 00:41:50;;;;;;;4.20;1.63;;;10.30;99.90;;;;;;4995885;28;20211;-84
2023/01/04 00:44:21;;;;;;;4.63;1.37;;;10.20;99.90;;;;;;4993266;28;20175;-86
2023/01/04 00:46:47;;;;;;;3.07;1.77;;;10.20;99.90;;;;;;4978958;28;20180;-85
2023/01/04 00:49:16;;;;;;;3.17;1.40;;;10.20;99.90;;;;;;4977872;28;20175;-86
2023/01/04 00:51:42;;;;;;;3.13;1.30;;;10.20;99.90;;;;;;4979749;28;20541;-84
2023/01/04 00:54:12;;;;;;;3.23;1.60;;;10.30;99.90;;;;;;4982649;28;20199;-86
2023/01/04 00:56:37;;;;;;;3.03;1.40;;;10.10;99.90;;;;;;4977680;28;20278;-86
2023/01/04 00:59:06;;;;;;;2.43;1.37;;;10.10;99.90;;;;;;4976228;28;20592;-86
2023/01/04 01:01:33;;;;;;;3.17;1.60;;;10.10;99.90;;;;;;4976431;28;20175;-86
2023/01/04 01:04:01;;;;;;;2.10;1.27;;;10.10;99.90;;;;;;4975323;28;20194;-86
2023/01/04 01:06:28;;;;;;;1.93;1.10;;;10.30;99.90;;;;;;4974532;28;20172;-85
2023/01/04 01:08:54;;;;;;;2.63;1.27;;;10.10;99.90;;;;;;4962242;28;20640;-84
2023/01/04 01:11:20;;;;;;;4.87;1.60;;;10.10;99.90;;;;;;4975884;28;20287;-85
2023/01/04 01:13:47;;;;;;;4.07;1.53;;;10.10;99.90;;;;;;4976309;28;20636;-84
2023/01/04 01:16:15;;;;;;;2.60;1.70;;;10.20;99.90;;;;;;4979010;28;20592;-85
2023/01/04 01:18:43;;;;;;;3.60;1.60;;;10.00;99.90;;;;;;4988635;28;20171;-86
2023/01/04 01:21:17;;;;;;;3.07;1.73;;;10.10;99.90;;;;;;4977191;28;20180;-86
2023/01/04 01:23:43;;;;;;;3.63;1.60;;;10.10;99.90;;;;;;4976146;28;20222;-86
2023/01/04 01:26:13;;;;;;;2.40;1.30;;;10.10;99.90;;;;;;4975828;28;20172;-87
2023/01/04 01:28:40;;;;;;;2.90;1.77;;;10.10;99.90;;;;;;4976556;28;20206;-85
2023/01/04 01:31:23;;;;;;;4.20;2.00;;;10.10;99.90;;;;;;4976124;28;20262;-86
2023/01/04 01:33:50;;;;;;;4.87;1.73;;;10.10;99.90;;;;;;4980452;28;20635;-85
2023/01/04 01:36:18;;;;;;;3.73;1.50;;;10.20;99.90;;;;;;4985049;28;20183;-86
2023/01/04 01:38:44;;;;;;;2.70;1.80;;;10.20;99.90;;;;;;4979968;28;20211;-84
2023/01/04 01:41:25;;;;;;;3.03;1.77;;;10.30;99.90;;;;;;4999130;28;20194;-84
2023/01/04 01:44:42;;;;;;;4.90;2.10;;;10.20;99.90;;;;;;4999351;28;20213;-84
2023/01/04 01:47:29;;;;;;;3.57;1.50;;;10.20;99.90;;;;;;4989474;28;20238;-84
2023/01/04 01:50:18;;;;;;;6.53;2.50;;;10.20;99.90;;;;;;4978298;28;20179;-86
2023/01/04 01:52:43;;;;;;;6.37;2.00;;;10.30;99.90;;;;;;4975725;28;20226;-84
2023/01/04 01:55:10;;;;;;;2.93;1.73;;;10.30;99.90;;;;;;4974463;28;20266;-85
2023/01/04 01:57:37;;;;;;;3.30;1.87;;;10.40;99.90;;;;;;4974833;28;20276;-86
2023/01/04 02:00:11;;;;;;;4.87;2.00;;;10.50;99.90;;;;;;4975072;28;20182;-85
2023/01/04 02:03:04;;;;;;;3.70;2.23;;;10.40;99.90;;;;;;4975725;28;20210;-85
2023/01/04 02:05:31;;;;;;;4.63;1.90;;;10.40;99.90;;;;;;4974183;28;20184;-85
2023/01/04 02:08:01;;;;;;;4.17;2.27;;;10.60;99.90;;;;;;4974798;28;20186;-84
2023/01/04 02:10:27;;;;;;;6.37;1.93;;;10.50;99.90;;;;;;4974888;28;20176;-85
2023/01/04 02:12:52;;;;;;;2.60;1.70;;;10.50;99.90;;;;;;4974734;28;20238;-85
2023/01/04 02:15:21;;;;;;;2.90;1.70;;;10.60;99.90;;;;;;4974637;28;20203;-85
2023/01/04 02:18:15;;;;;;;3.60;2.30;;;10.60;99.90;;;;;;4984161;28;20235;-83
2023/01/04 02:20:50;;;;;;;5.07;2.10;;;10.60;99.90;;;;;;4994424;28;20265;-84
2023/01/04 02:23:46;;;;;;;4.93;2.10;;;10.60;99.90;;;;;;4993581;28;20238;-85
2023/01/04 02:26:52;;;;;;;4.13;2.30;;;10.70;99.90;;;;;;4989422;28;20180;-84
2023/01/04 02:29:43;;;;;;;3.57;1.80;;;10.80;99.90;;;;;;4975410;28;20647;-85
2023/01/04 02:32:24;;;;;;;5.43;2.60;;;10.80;99.90;;;;;;4975516;28;20654;-87
2023/01/04 02:35:14;;;;;;;4.03;2.00;;;10.90;99.90;;;;;;4973655;28;20187;-86
2023/01/04 02:38:08;;;;;;;4.83;1.90;;;10.90;99.90;;;;;;4974738;28;20624;-84
2023/01/04 02:40:52;;;;;;;6.23;1.97;;;11.10;99.90;;;;;;4977672;28;20223;-85
2023/01/04 02:46:18;;;;;;;4.60;2.43;;;11.00;99.90;;;;;;4975242;28;20384;-84
2023/01/04 02:51:34;;;;;;;4.83;2.50;;;11.20;99.90;;;;;;4976006;28;20214;-85
2023/01/04 02:54:05;;;;;;;4.37;2.10;;;11.10;99.90;;;;;;4973492;28;20618;-84
2023/01/04 02:56:51;;;;;;;6.70;2.40;;;11.20;99.90;;;;;;4974381;28;20176;-84
2023/01/04 02:59:23;;;;;;;6.13;2.97;;;11.10;99.90;;;;;;4974042;28;20234;-85
2023/01/04 03:08:32;;;;;;;3.63;2.13;;;11.20;99.90;;;;;;4976367;28;20191;-84
2023/01/04 03:14:21;;;;;;;5.40;2.00;;;11.30;99.90;;;;;;4983132;28;20171;-87
2023/01/04 03:16:50;;;;;;;4.77;2.23;;;11.30;99.90;;;;;;4978160;28;20180;-87
2023/01/04 03:35:21;;;;;;;4.20;1.90;;;11.30;99.90;;;;;;4996898;28;20218;-86
2023/01/04 03:36:37;;;;;;;4.20;1.83;;;11.30;99.90;;;;;;4981634;28;20190;-87
2023/01/04 03:48:48;;;;;;;5.17;1.90;;;11.40;99.90;;;;;;4980823;28;20218;-84
2023/01/04 03:51:26;;;;;;;5.03;1.77;;;11.50;99.90;;;;;;4976033;28;20659;-85
2023/01/04 03:54:13;;;;;;;3.80;1.87;;;11.50;99.90;;;;;;4979675;28;20195;-86
2023/01/04 03:56:42;;;;;;;6.87;1.70;;;11.60;99.90;;;;;;4983398;28;20198;-87
2023/01/04 03:59:09;;;;;;;3.07;1.63;;;11.60;99.90;;;;;;4989772;28;20183;-84
2023/01/04 04:01:36;;;;;;;3.40;1.50;;;11.70;99.90;;;;;;4980583;28;20179;-86
2023/01/04 04:09:30;;;;;;;4.13;1.80;;;11.60;99.90;;;;;;4980108;28;20210;-84
2023/01/04 04:11:57;;;;;;;4.27;1.60;;;11.60;99.90;;;;;;4978388;28;20172;-86
2023/01/04 04:14:22;;;;;;;3.97;1.60;;;11.60;99.90;;;;;;4981427;28;20243;-84
2023/01/04 04:16:48;;;;;;;2.60;1.50;;;11.60;99.90;;;;;;4980040;28;20210;-85
2023/01/04 04:19:14;;;;;;;3.97;1.57;;;11.70;99.90;;;;;;4985009;28;20191;-85
2023/01/04 04:21:40;;;;;;;3.77;1.57;;;11.80;99.90;;;;;;5001015;28;20156;-84
2023/01/04 04:24:06;;;;;;;4.47;2.00;;;11.70;99.90;;;;;;5000391;28;20236;-84
2023/01/04 04:26:35;;;;;;;2.10;1.20;;;11.80;99.90;;;;;;4994994;28;20187;-85
2023/01/04 04:29:04;;;;;;;4.93;1.53;;;11.80;99.90;;;;;;4993303;28;20172;-88
2023/01/04 04:34:53;;;;;;;3.00;1.30;;;11.80;99.90;;;;;;4977962;28;20632;-84
2023/01/04 04:37:18;;;;;;;4.07;1.70;;;11.80;99.90;;;;;;4976139;28;20540;-84
2023/01/04 04:39:44;;;;;;;3.33;1.20;;;11.80;99.90;;;;;;4976999;28;20661;-85
2023/01/04 04:42:11;;;;;;;1.87;1.20;;;11.80;99.90;;;;;;4976930;28;20302;-85
2023/01/04 04:44:36;;;;;;;2.43;1.40;;;11.90;99.90;;;;;;4990432;28;20188;-85
2023/01/04 04:47:02;;;;;;;3.87;1.20;;;11.90;99.90;;;;;;4997765;28;20211;-85
2023/01/04 04:49:29;;;;;;;4.23;1.40;;;11.90;99.90;;;;;;4993383;28;20184;-83
2023/01/04 04:51:54;;;;;;;2.60;1.57;;;11.90;99.90;;;;;;4978981;28;20167;-84
2023/01/04 04:54:23;;;;;;;3.53;1.30;;;12.00;99.90;;;;;;4978646;28;20246;-84
2023/01/04 04:56:49;;;;;;;2.43;1.30;;;11.90;99.90;;;;;;4976199;28;20179;-84
2023/01/04 04:59:15;;;;;;;2.37;1.00;;;12.00;99.90;;;;;;4976278;28;20175;-84
2023/01/04 05:01:41;;;;;;;2.67;1.10;;;12.00;99.90;;;;;;4976209;28;20628;-85
2023/01/04 05:04:06;;;;;;;3.00;1.40;;;12.10;99.90;;;;;;4975420;28;20184;-84
2023/01/04 05:06:32;;;;;;;3.37;1.33;;;12.10;99.90;;;;;;4975698;28;20210;-84
2023/01/04 05:08:58;;;;;;;3.07;1.30;;;12.00;99.90;;;;;;4960236;28;20195;-85
2023/01/04 05:14:09;;;;;;;1.57;1.00;;;12.00;99.90;;;;;;4977470;28;20179;-84
2023/01/04 05:16:35;;;;;;;2.57;1.37;;;12.00;99.90;;;;;;4975763;28;20191;-85
2023/01/04 05:19:01;;;;;;;3.03;1.10;;;12.10;99.90;;;;;;4975872;28;20258;-83
2023/01/04 05:21:26;;;;;;;2.30;0.90;;;12.10;99.90;;;;;;4975851;28;20274;-84
2023/01/04 05:23:53;;;;;;;2.20;1.20;;;12.10;99.90;;;;;;4975526;28;20222;-87
2023/01/04 05:26:19;;;;;;;2.83;1.37;;;12.10;99.90;;;;;;4975819;28;20631;-86
2023/01/04 05:28:46;;;;;;;3.87;1.03;;;12.10;99.90;;;;;;4975354;28;20180;-84
2023/01/04 05:31:13;;;;;;;4.23;1.30;;;12.10;99.90;;;;;;4975715;28;20172;-83
2023/01/04 05:33:39;;;;;;;1.50;1.17;;;12.10;99.90;;;;;;4975703;28;20259;-83
2023/01/04 05:36:05;;;;;;;3.50;1.30;;;12.10;99.90;;;;;;4975284;28;20206;-83
2023/01/04 05:38:30;;;;;;;3.03;1.10;;;12.00;99.90;;;;;;4975038;28;20180;-85
2023/01/04 05:40:56;;;;;;;2.07;1.10;;;12.10;99.90;;;;;;4982681;28;20287;-82
2023/01/04 05:43:23;;;;;;;1.90;0.97;;;12.10;99.90;;;;;;4995871;28;20211;-83
2023/01/04 05:45:54;;;;;;;1.93;0.80;;;12.10;99.90;;;;;;4991857;28;20192;-83
2023/01/04 05:48:23;;;;;;;1.97;0.93;;;12.10;99.90;;;;;;4976318;28;20183;-85
2023/01/04 05:50:49;;;;;;;3.90;1.00;;;12.20;99.90;;;;;;4981064;28;20202;-82
2023/01/04 05:53:18;;;;;;;2.40;1.20;;;12.20;99.90;;;;;;4983395;28;20202;-83
2023/01/04 05:55:46;;;;;;;2.17;1.00;;;12.20;99.90;;;;;;4985861;28;20258;-87
2023/01/04 05:58:12;;;;;;;2.77;1.10;;;12.20;99.90;;;;;;4987986;28;20211;-83
2023/01/04 06:00:38;;;;;;;2.47;1.00;;;12.20;99.90;;;;;;4996635;28;20188;-84
2023/01/04 06:03:04;;;;;;;4.40;1.00;;;12.30;99.90;;;;;;4989766;28;20211;-84
2023/01/04 06:05:30;;;;;;;1.23;0.80;;;12.30;99.90;;;;;;4985251;28;20178;-85
2023/01/04 06:07:56;;;;;;;1.90;1.00;;;12.30;99.90;;;;;;4985016;28;20195;-84
2023/01/04 06:10:23;;;;;;;2.27;1.00;;;12.30;99.90;;;;;;4987682;28;20176;-83
2023/01/04 06:12:50;;;;;;;4.00;1.17;;;12.40;99.90;;;;;;4983949;28;20650;-83
2023/01/04 06:15:16;;;;;;;2.87;1.10;;;12.40;99.90;;;;;;4975991;28;20180;-85
2023/01/04 06:17:43;;;;;;;2.47;0.90;;;12.30;99.90;;;;;;4975434;28;20383;-83
2023/01/04 06:20:09;;;;;;;2.37;1.00;;;12.30;99.90;;;;;;4978872;28;20190;-84
2023/01/04 06:22:37;;;;;;;2.10;1.10;;;12.20;99.90;;;;;;4982432;28;20220;-84
2023/01/04 06:25:03;;;;;;;4.67;1.00;;;12.10;99.90;;;;;;4975618;28;20175;-84
2023/01/04 06:27:30;;;;;;;2.27;1.10;;;12.10;99.90;;;;;;4974685;28;20183;-86
2023/01/04 06:29:57;;;;;;;2.07;0.90;;;12.10;99.90;;;;;;4976050;28;20715;-83
2023/01/04 06:32:23;;;;;;;2.97;1.00;;;12.20;99.90;;;;;;4974921;28;20262;-85
2023/01/04 06:34:48;;;;;;;2.23;1.03;;;12.10;99.90;;;;;;4975550;28;20207;-85
2023/01/04 06:37:14;;;;;;;2.13;0.93;;;12.00;99.90;;;;;;4975796;28;20705;-84
2023/01/04 06:39:40;;;;;;;3.17;1.00;;;12.10;99.90;;;;;;4975956;28;20672;-84
2023/01/04 06:42:43;;;;;;;2.13;1.20;;;12.20;99.90;;;;;;4977032;28;20299;-84
2023/01/04 06:44:51;;;;;;;2.97;1.10;;;12.10;99.90;;;;;;4976315;28;20254;-84
2023/01/04 06:47:17;;;;;;;3.37;1.20;;;12.10;99.90;;;;;;4974006;28;20199;-85
2023/01/04 06:49:42;;;;;;;3.87;1.20;;;12.20;99.90;;;;;;4975156;28;20550;-84
2023/01/04 06:52:08;;;;;;;3.20;1.20;;;12.20;99.90;;;;;;4975558;28;20659;-84
2023/01/04 06:54:34;;;;;;;2.80;1.20;;;12.30;99.90;;;;;;4979950;28;20327;-83
2023/01/04 06:56:59;;;;;;;3.23;1.20;;;12.30;99.90;;;;;;4980801;28;20203;-85
2023/01/04 06:59:25;;;;;;;3.90;1.30;;;12.30;99.90;;;;;;4979774;28;20192;-87
2023/01/04 07:01:50;;;;;;;3.57;1.33;;;12.30;99.90;;;;;;4993360;28;20183;-87
2023/01/04 07:04:16;;;;;;;3.27;1.43;;;12.20;99.90;;;;;;4996966;28;20200;-86
2023/01/04 07:06:42;;;;;;;4.73;1.23;;;12.30;99.90;;;;;;4996720;28;20166;-87
2023/01/04 07:10:03;;;;;;;2.07;0.80;;;12.30;99.90;;;;;;4990978;28;20248;-85
2023/01/04 07:13:03;;;;;;;3.30;1.10;;;12.30;99.90;;;;;;4989221;28;20171;-85
2023/01/04 07:15:38;;;;;;;2.87;1.40;;;12.30;99.90;;;;;;4998113;28;20164;-86
2023/01/04 07:18:15;;;;;;;3.87;0.90;;;12.40;99.90;;;;;;4990673;28;20274;-85
2023/01/04 07:20:42;;;;;;;2.97;0.90;;;12.40;99.90;;;;;;4979891;28;20163;-83
2023/01/04 07:23:09;;;;;;;4.17;1.30;;;12.40;99.90;;;;;;4980288;28;20207;-84
2023/01/04 07:25:40;;;;;;;2.03;0.90;;;12.50;99.90;;;;;;4980167;28;20196;-85
2023/01/04 07:28:07;;;;;;;1.33;0.93;;;12.50;99.90;;;;;;4993933;28;20830;-85
2023/01/04 07:30:33;;;;;;;2.53;1.10;;;12.50;99.90;;;;;;4988404;28;20682;-85
2023/01/04 07:32:59;;;;;;;1.77;0.97;;;12.60;99.90;;;;;;4972307;28;20223;-82
2023/01/04 07:35:25;;;;;;;2.40;1.00;;;12.60;99.90;;;;;;4960059;28;20637;-83
2023/01/04 07:37:52;;;;;;;1.70;0.80;;;12.70;99.90;;;;;;4959719;28;20696;-84
2023/01/04 07:40:18;;;;;;;2.77;1.00;;;12.80;99.90;;;;;;4973198;28;20183;-84
2023/01/04 07:42:43;;;;;;;2.23;0.90;;;12.60;99.90;;;;;;4964723;28;20694;-84
2023/01/04 07:45:09;;;;;;;4.00;1.40;;;12.60;99.90;;;;;;4954048;28;20192;-84
2023/01/04 07:47:35;;;;;;;3.00;0.80;;;12.60;99.90;;;;;;4957805;28;20287;-84
2023/01/04 07:50:01;;;;;;;1.83;1.00;;;12.60;99.90;;;;;;4963820;28;20323;-85
2023/01/04 07:52:27;;;;;;;3.77;1.20;;;12.60;99.90;;;;;;4954814;28;20243;-83
2023/01/04 07:54:53;;;;;;;3.83;1.00;;;12.60;99.90;;;;;;4953663;29;20195;-90
2023/01/04 07:57:19;;;;;;;2.57;0.97;;;12.60;99.90;;;;;;4953209;28;20183;-82
2023/01/04 07:59:44;;;;;;;2.07;0.97;;;12.60;99.90;;;;;;4956279;28;20186;-84
2023/01/04 08:02:11;;;;;;;1.17;0.80;;;12.60;99.90;;;;;;4959484;28;20196;-83
2023/01/04 08:04:37;;;;;;;3.07;1.00;;;12.70;99.90;;;;;;4970995;28;20195;-82
2023/01/04 08:07:05;;;;;;;3.30;1.00;;;12.60;99.90;;;;;;4968012;28;20205;-84
2023/01/04 08:09:30;;;;;;;1.83;0.83;;;12.60;99.90;;;;;;4962893;28;20686;-87
2023/01/04 08:11:56;;;;;;;2.63;0.90;;;12.60;99.90;;;;;;4969856;28;20271;-87
2023/01/04 08:14:22;;;;;;;2.97;0.83;;;12.70;99.90;;;;;;4958288;28;20178;-86
2023/01/04 08:16:48;;;;;;;2.67;1.00;;;12.70;99.90;;;;;;4967877;28;20548;-86
2023/01/04 08:19:16;;;;;;;2.83;1.00;;;12.60;99.90;;;;;;4978118;28;20183;-86
2023/01/04 08:21:42;;;;;;;2.50;1.17;;;12.60;99.90;;;;;;4973408;28;20177;-86
2023/01/04 08:24:12;;;;;;;2.03;0.90;;;12.60;99.90;;;;;;4974476;28;20186;-85
2023/01/04 08:26:38;;;;;;;1.93;0.90;;;12.60;99.90;;;;;;4976265;28;20261;-89
2023/01/04 08:29:03;;;;;;;1.53;0.80;;;12.70;99.90;;;;;;4991696;28;20180;-85
2023/01/04 08:31:31;;;;;;;2.50;1.20;;;12.60;99.90;;;;;;4965397;28;20177;-84
2023/01/04 08:33:59;;;;;;;2.90;1.20;;;12.70;99.90;;;;;;4962791;28;20252;-83
2023/01/04 08:36:33;;;;;;;1.70;0.90;;;12.80;99.90;;;;;;4963936;28;20200;-86
2023/01/04 08:39:05;;;;;;;4.33;1.60;;;12.60;99.90;;;;;;4958942;28;20191;-83
2023/01/04 08:41:33;;;;;;;2.77;1.40;;;12.70;99.90;;;;;;4973714;28;20200;-84
2023/01/04 08:43:59;;;;;;;2.60;1.03;;;12.70;99.90;;;;;;4969932;28;20206;-86
2023/01/04 08:46:24;;;;;;;4.10;1.13;;;12.60;99.90;;;;;;4967345;28;20190;-84
2023/01/04 08:48:53;;;;;;;2.27;1.00;;;12.80;99.90;;;;;;4976485;28;20180;-84
2023/01/04 08:51:19;;;;;;;3.27;1.00;;;12.70;99.90;;;;;;4976497;28;20182;-84
2023/01/04 08:53:44;;;;;;;4.17;1.33;;;12.70;99.90;;;;;;4985033;28;20180;-85
2023/01/04 08:56:10;;;;;;;4.20;1.30;;;12.80;99.90;;;;;;4978818;28;20184;-85
2023/01/04 08:58:37;;;;;;;4.93;1.37;;;12.70;99.90;;;;;;4970169;28;20228;-88
2023/01/04 09:01:09;;;;;;;4.47;1.50;;;12.80;99.90;;;;;;4971050;28;20233;-87
2023/01/04 09:03:36;;;;;;;5.53;1.33;;;12.90;99.90;;;;;;4962715;28;20711;-87
2023/01/04 09:06:03;;;;;;;3.70;1.27;;;12.90;99.90;;;;;;4961079;28;20248;-83
2023/01/04 09:08:31;;;;;;;5.30;1.33;;;12.90;99.90;;;;;;4991259;28;20647;-84
2023/01/04 09:10:56;;;;;;;7.47;1.63;;;12.90;99.90;;;;;;4960799;28;20211;-85
2023/01/04 09:13:22;;;;;;;4.57;1.40;;;12.90;99.90;;;;;;4953997;28;20181;-86
2023/01/04 09:15:48;;;;;;;2.60;1.07;;;12.90;99.90;;;;;;4971931;28;20185;-89
2023/01/04 09:18:13;;;;;;;2.73;0.90;;;13.00;99.90;;;;;;4977626;28;20642;-88
2023/01/04 09:20:40;;;;;;;2.97;1.27;;;13.00;99.90;;;;;;4973010;28;20239;-90
2023/01/04 09:23:06;;;;;;;2.83;1.10;;;13.00;99.90;;;;;;4961347;28;20204;-85
2023/01/04 09:25:31;;;;;;;4.23;1.27;;;13.00;99.90;;;;;;4962255;28;20175;-90
2023/01/04 09:27:57;;;;;;;2.90;0.90;;;13.10;99.90;;;;;;4961651;28;20189;-88
2023/01/04 09:30:24;;;;;;;4.23;1.10;;;13.00;99.90;;;;;;4976418;28;20188;-90
2023/01/04 09:32:49;;;;;;;3.23;1.30;;;13.00;99.90;;;;;;4966256;28;20188;-95
2023/01/04 09:35:15;;;;;;;3.07;1.37;;;13.00;99.90;;;;;;4966924;28;20174;-86
2023/01/04 09:37:41;;;;;;;3.57;1.13;;;12.90;99.90;;;;;;4960721;28;20177;-83
2023/01/04 09:40:17;;;;;;;4.60;1.00;;;13.00;99.90;;;;;;4961087;28;20177;-87
2023/01/04 09:42:44;;;;;;;6.77;1.73;;;13.00;99.90;;;;;;4969631;28;20208;-82
2023/01/04 09:45:22;;;;;;;3.77;1.20;;;13.00;99.90;;;;;;4961321;28;20186;-84
2023/01/04 09:48:06;;;;;;;4.20;1.20;;;12.90;99.90;;;;;;4957331;28;20235;-85
2023/01/04 09:50:52;;;;;;;4.50;1.20;;;12.90;99.90;;;;;;4975024;28;20186;-82
2023/01/04 09:53:25;;;;;;;5.67;1.30;;;12.90;99.90;;;;;;4978356;28;20250;-85
2023/01/04 09:55:54;;;;;;;4.30;1.43;;;12.90;99.90;;;;;;4982249;28;20184;-85
2023/01/04 09:58:38;;;;;;;3.47;1.30;;;12.80;99.90;;;;;;4997446;28;20212;-78
2023/01/04 10:01:15;;;;;;;2.30;1.23;;;12.90;99.90;;;;;;4989589;28;20177;-80
2023/01/04 10:04:12;;;;;;;1.77;0.83;;;13.00;99.90;;;;;;4958505;28;20216;-84
2023/01/04 10:06:37;;;;;;;2.80;1.20;;;13.00;99.90;;;;;;4959351;28;20164;-84
2023/01/04 10:09:08;;;;;;;4.37;1.43;;;12.90;99.90;;;;;;4972607;28;20212;-85
2023/01/04 10:12:08;;;;;;;2.17;1.20;;;12.80;99.90;;;;;;4955720;28;20185;-83
2023/01/04 10:14:34;;;;;;;4.30;1.00;;;12.80;99.90;;;;;;4973237;28;20275;-83
2023/01/04 10:17:21;;;;;;;3.00;1.20;;;12.90;99.90;;;;;;4978530;28;20504;-84
2023/01/04 10:20:21;;;;;;;3.47;1.00;;;12.90;99.90;;;;;;4965377;28;20233;-83
2023/01/04 10:23:05;;;;;;;2.73;1.33;;;12.80;99.90;;;;;;4984530;28;20211;-83
2023/01/04 10:25:44;;;;;;;6.27;1.27;;;12.80;99.90;;;;;;4969061;28;20187;-82
2023/01/04 10:28:23;;;;;;;3.10;1.00;;;12.70;99.90;;;;;;4972528;28;20184;-85
2023/01/04 10:30:59;;;;;;;3.00;1.00;;;12.70;99.90;;;;;;4972378;28;20551;-84
2023/01/04 10:33:29;;;;;;;5.03;1.13;;;12.70;99.90;;;;;;4957062;28;20180;-84
2023/01/04 10:35:56;;;;;;;2.90;1.00;;;12.70;99.90;;;;;;4956790;28;20199;-84
2023/01/04 10:38:39;;;;;;;4.93;1.30;;;12.80;99.90;;;;;;4954781;28;20188;-84
2023/01/04 10:41:10;;;;;;;3.27;1.10;;;12.80;99.90;;;;;;4957229;28;20200;-85
2023/01/04 10:43:45;;;;;;;4.33;1.07;;;12.80;99.90;;;;;;4957522;28;20223;-83
2023/01/04 10:46:20;;;;;;;2.80;1.00;;;12.90;99.90;;;;;;4959658;28;20279;-83
2023/01/04 10:48:54;;;;;;;2.37;1.20;;;12.90;99.90;;;;;;4957306;28;20621;-84
2023/01/04 10:51:40;;;;;;;3.87;1.53;;;12.90;99.90;;;;;;4974517;28;20168;-83
2023/01/04 10:54:17;;;;;;;2.73;1.20;;;12.80;99.90;;;;;;4956565;28;20190;-83
2023/01/04 10:57:12;;;;;;;3.47;1.30;;;12.80;99.90;;;;;;4958525;28;20243;-86
2023/01/04 10:59:52;;;;;;;4.97;1.47;;;12.80;99.90;;;;;;4957441;28;20172;-84
2023/01/04 11:02:29;;;;;;;4.93;1.50;;;12.80;99.90;;;;;;4960731;28;20189;-81
2023/01/04 11:05:03;;;;;;;4.60;1.10;;;12.80;99.90;;;;;;4974454;28;20542;-82
2023/01/04 11:07:40;;;;;;;2.17;1.00;;;12.90;99.90;;;;;;4955895;28;20177;-84
2023/01/04 11:10:14;;;;;;;3.17;1.03;;;12.80;99.90;;;;;;4957596;28;20168;-82
2023/01/04 11:12:42;;;;;;;3.93;1.37;;;12.90;99.90;;;;;;4959505;28;20177;-81
2023/01/04 11:15:08;;;;;;;2.63;1.13;;;12.90;99.90;;;;;;4972497;28;20276;-81
2023/01/04 11:17:34;;;;;;;4.40;1.27;;;12.90;99.90;;;;;;4959116;28;20180;-83
2023/01/04 11:20:03;;;;;;;3.90;1.40;;;12.80;99.90;;;;;;4960517;29;20194;-82
2023/01/04 11:22:42;;;;;;;2.90;1.37;;;12.80;99.90;;;;;;4957517;28;20252;-84
2023/01/04 11:25:17;;;;;;;4.43;1.40;;;12.80;99.90;;;;;;4956789;28;20180;-82
2023/01/04 11:27:54;;;;;;;5.63;1.40;;;12.80;99.90;;;;;;4955174;28;20201;-83
2023/01/04 11:30:24;;;;;;;4.57;1.43;;;12.70;99.90;;;;;;4971540;28;20183;-82
2023/01/04 11:33:15;;;;;;;4.10;1.87;;;12.70;99.90;;;;;;4959660;28;20172;-85
2023/01/04 11:35:47;;;;;;;5.03;1.90;;;12.80;99.90;;;;;;4961765;28;20180;-83
2023/01/04 11:38:26;;;;;;;4.27;1.60;;;12.80;99.90;;;;;;4974283;28;20199;-82
2023/01/04 11:41:00;;;;;;;2.53;1.47;;;12.80;99.90;;;;;;4959497;28;20190;-83
2023/01/04 11:43:29;;;;;;;2.97;1.73;;;12.80;99.90;;;;;;4970540;28;20754;-84
2023/01/04 11:46:01;;;;;;;4.13;1.63;;;12.80;99.90;;;;;;4962419;28;20177;-86
2023/01/04 11:48:31;;;;;;;4.17;1.63;;;12.80;99.90;;;;;;4984700;28;20675;-83
2023/01/04 11:50:59;;;;;;;3.13;1.77;;;12.70;99.90;;;;;;4965322;28;20655;-86
2023/01/04 11:53:35;;;;;;;2.40;1.27;;;12.80;99.90;;;;;;4960931;28;20185;-90
2023/01/04 11:56:12;;;;;;;3.83;1.50;;;12.80;99.90;;;;;;4959975;28;20188;-90
2023/01/04 11:58:39;;;;;;;4.10;1.70;;;12.80;99.90;;;;;;4960904;28;20211;-90
2023/01/04 12:01:05;;;;;;;3.20;1.57;;;12.90;99.90;;;;;;4964545;28;20182;-86
2023/01/04 12:03:38;;;;;;;3.70;1.30;;;12.80;99.90;;;;;;4961240;28;20231;-90
2023/01/04 12:06:26;;;;;;;3.93;1.67;;;12.80;99.90;;;;;;4961816;28;20203;-89
2023/01/04 12:08:53;;;;;;;3.53;1.67;;;12.80;99.90;;;;;;4959901;28;20183;-88
2023/01/04 12:11:30;;;;;;;3.60;1.47;;;12.80;99.90;;;;;;4958546;28;20180;-84
2023/01/04 12:13:58;;;;;;;3.13;1.60;;;12.90;99.90;;;;;;4961448;28;20210;-88
2023/01/04 12:16:52;;;;;;;4.67;1.70;;;12.90;99.90;;;;;;4959587;28;20263;-89
2023/01/04 12:19:20;;;;;;;3.33;1.40;;;12.90;99.90;;;;;;4961078;28;20183;-88
2023/01/04 12:21:49;;;;;;;5.50;1.60;;;12.90;99.90;;;;;;4967785;28;20171;-88
2023/01/04 12:24:24;;;;;;;3.23;1.20;;;12.90;99.90;;;;;;4977559;28;20211;-87
2023/01/04 12:26:51;;;;;;;3.13;1.30;;;12.90;99.90;;;;;;4977879;28;20243;-86
2023/01/04 12:29:33;;;;;;;4.20;1.70;;;13.10;99.90;;;;;;4970870;28;20481;-89
2023/01/04 12:32:10;;;;;;;2.90;1.50;;;12.90;99.90;;;;;;4961796;28;20182;-89
2023/01/04 12:34:36;;;;;;;2.37;1.50;;;13.00;99.90;;;;;;4970042;28;20184;-87
2023/01/04 12:37:04;;;;;;;4.90;1.97;;;12.90;99.90;;;;;;4978487;28;20181;-88
2023/01/04 12:39:41;;;;;;;5.60;1.80;;;13.00;99.90;;;;;;4978603;28;20240;-87
2023/01/04 12:42:14;;;;;;;2.93;1.50;;;13.00;99.90;;;;;;4972734;28;20211;-89
2023/01/04 12:44:46;;;;;;;4.17;1.60;;;12.90;99.90;;;;;;4968983;28;20260;-91
2023/01/04 12:50:16;;;;;;;3.17;1.37;;;12.90;99.90;;;;;;4963492;29;20232;-88
2023/01/04 12:52:44;;;;;;;4.30;1.40;;;13.00;99.90;;;;;;4974638;28;20641;-89
2023/01/04 12:55:31;;;;;;;4.50;1.30;;;13.00;99.90;;;;;;4957538;28;20199;-90
2023/01/04 12:58:26;;;;;;;2.17;1.27;;;13.00;99.90;;;;;;4973724;28;20188;-90
2023/01/04 13:00:51;;;;;;;3.67;1.40;;;13.00;99.90;;;;;;4960001;28;20233;-89
2023/01/04 13:03:17;;;;;;;3.20;1.40;;;13.10;99.90;;;;;;4977388;28;20300;-88
2023/01/04 13:06:04;;;;;;;1.20;0.97;;;13.00;99.90;;;;;;4973382;28;20182;-89
2023/01/04 13:08:40;;;;;;;2.97;0.83;;;13.00;99.90;;;;;;4957251;28;20215;-90
2023/01/04 13:11:38;;;;;;;2.13;1.00;;;13.00;99.90;;;;;;4957611;28;20301;-88
2023/01/04 13:14:14;;;;;;;2.80;1.00;;;13.00;99.90;;;;;;4957284;28;20199;-90
2023/01/04 13:16:53;;;;;;;2.43;1.43;;;13.00;99.90;;;;;;4957371;28;20282;-90
2023/01/04 13:19:24;;;;;;;2.60;1.30;;;13.10;99.90;;;;;;4959995;28;20177;-88
2023/01/04 13:21:51;;;;;;;2.47;1.00;;;13.10;99.90;;;;;;4961057;28;20179;-86
2023/01/04 13:24:34;;;;;;;3.67;1.10;;;13.10;99.90;;;;;;4961086;28;20191;-83
2023/01/04 13:27:22;;;;;;;3.20;1.13;;;13.30;99.90;;;;;;4961990;28;20279;-83
2023/01/04 13:29:49;;;;;;;1.80;1.20;;;13.40;99.90;;;;;;4956258;28;20659;-83
2023/01/04 13:32:17;;;;;;;3.03;1.30;;;13.40;99.90;;;;;;4957840;28;20159;-85
2023/01/04 13:35:13;;;;;;;2.63;1.23;;;13.40;99.90;;;;;;4957971;28;20174;-83
2023/01/04 13:37:47;;;;;;;1.77;1.00;;;13.50;99.90;;;;;;4956216;28;20713;-83
2023/01/04 13:40:25;;;;;;;2.53;1.13;;;13.50;99.90;;;;;;4961844;28;20227;-83
2023/01/04 13:43:12;;;;;;;2.50;1.00;;;13.50;99.90;;;;;;4974466;28;20279;-85
2023/01/04 13:46:07;;;;;;;2.77;0.93;;;13.50;99.90;;;;;;4973159;28;20206;-83
2023/01/04 13:48:39;;;;;;;5.10;1.20;;;13.50;99.90;;;;;;4957677;28;20248;-85
2023/01/04 13:51:29;;;;;;;2.67;1.43;;;13.50;99.90;;;;;;4957013;28;20177;-83
2023/01/04 13:54:00;;;;;;;2.40;1.47;;;13.50;99.90;;;;;;4976137;28;20164;-84
2023/01/04 13:56:28;;;;;;;2.17;1.10;;;13.50;99.90;;;;;;4965021;28;20181;-84
2023/01/04 13:58:54;;;;;;;2.23;1.20;;;13.60;99.90;;;;;;4957289;28;20191;-84
2023/01/04 14:01:30;;;;;;;3.43;1.00;;;13.50;99.90;;;;;;4956236;28;20553;-83
2023/01/04 14:03:57;;;;;;;2.90;1.30;;;13.50;99.90;;;;;;4955676;28;20201;-82